Time;durP1;ratioP1;P1;durP2;ratioP2;P2;SDS_P1;SDS_P2;PMS_P1;PMS_P2;Temp;Humidity;BMP_temperature;BMP_pressure;BME280_temperature;BME280_humidity;BME280_pressure;Samples;Min_cycle;Max_cycle;Signal;HPM_P1;HPM_P2
2024/02/23 00:00:13;;;;;;;8.23;6.22;;;333.40;1843.20;;;;;;4844192;29;20046;-76
2024/02/23 00:02:38;;;;;;;7.03;4.78;;;333.20;1843.20;;;;;;4843951;29;20029;-70
2024/02/23 00:05:04;;;;;;;7.90;5.82;;;333.40;1843.20;;;;;;4844513;29;20026;-73
2024/02/23 00:07:30;;;;;;;10.32;6.45;;;333.10;1843.20;;;;;;4844133;29;20445;-70
2024/02/23 00:09:56;;;;;;;10.38;6.68;;;333.50;1843.20;;;;;;4851365;29;20068;-75
2024/02/23 00:12:22;;;;;;;10.60;7.55;;;333.50;1843.20;;;;;;4862680;29;20606;-79
2024/02/23 00:14:48;;;;;;;10.48;6.70;;;333.50;1868.80;;;;;;4862534;29;20418;-78
2024/02/23 00:17:13;;;;;;;8.82;6.10;;;333.40;1868.80;;;;;;4862717;29;20053;-80
2024/02/23 00:19:39;;;;;;;10.80;6.20;;;333.40;1843.20;;;;;;4860819;29;20433;-76
2024/02/23 00:22:05;;;;;;;8.77;6.20;;;333.50;1868.80;;;;;;4859287;29;20469;-70
2024/02/23 00:24:31;;;;;;;8.20;6.45;;;333.50;1843.20;;;;;;4859751;29;20037;-78
2024/02/23 00:26:57;;;;;;;11.10;6.22;;;333.50;1843.20;;;;;;4859214;29;20410;-75
2024/02/23 00:29:23;;;;;;;8.52;5.68;;;333.70;1817.60;;;;;;4859309;29;20393;-79
2024/02/23 00:31:49;;;;;;;5.50;4.50;;;333.60;1843.20;;;;;;4859170;29;20108;-73
2024/02/23 00:34:15;;;;;;;9.57;4.75;;;333.70;1843.20;;;;;;4843138;29;20553;-74
2024/02/23 00:36:42;;;;;;;8.20;5.22;;;333.70;1843.20;;;;;;4859536;29;20434;-79
2024/02/23 00:39:08;;;;;;;7.20;5.32;;;333.70;1843.20;;;;;;4859131;29;20060;-74
2024/02/23 00:41:34;;;;;;;8.05;5.80;;;333.70;1843.20;;;;;;4859159;29;20484;-70
2024/02/23 00:44:00;;;;;;;10.20;6.47;;;333.60;1843.20;;;;;;4859279;29;20030;-77
2024/02/23 00:46:26;;;;;;;7.65;5.38;;;333.60;1843.20;;;;;;4859087;29;20064;-79
2024/02/23 00:48:52;;;;;;;7.22;5.25;;;333.60;1868.80;;;;;;4859082;29;20176;-81
2024/02/23 00:51:17;;;;;;;6.57;4.60;;;333.60;1868.80;;;;;;4859129;29;20025;-75
2024/02/23 00:53:43;;;;;;;8.35;4.72;;;333.60;1868.80;;;;;;4858861;29;20390;-79
2024/02/23 00:56:09;;;;;;;7.07;4.28;;;333.60;1868.80;;;;;;4858967;29;20397;-73
2024/02/23 00:58:35;;;;;;;7.18;4.88;;;333.50;1868.80;;;;;;4858933;29;20037;-79
2024/02/23 01:01:00;;;;;;;6.85;5.07;;;333.50;1868.80;;;;;;4858304;29;20048;-73
2024/02/23 01:03:26;;;;;;;6.57;4.60;;;333.50;1868.80;;;;;;4858643;29;20053;-76
2024/02/23 01:05:52;;;;;;;6.70;4.85;;;333.50;1894.40;;;;;;4858998;29;20113;-80
2024/02/23 01:08:19;;;;;;;8.20;4.78;;;333.50;1868.80;;;;;;4858719;29;20493;-82
2024/02/23 01:10:45;;;;;;;5.55;4.35;;;333.50;1894.40;;;;;;4858926;29;20041;-81
2024/02/23 01:13:10;;;;;;;6.88;4.65;;;333.50;1868.80;;;;;;4858802;29;20026;-79
2024/02/23 01:15:36;;;;;;;6.28;4.95;;;333.50;1868.80;;;;;;4858515;29;20104;-77
2024/02/23 01:18:03;;;;;;;6.57;4.57;;;333.50;1894.40;;;;;;4858732;29;20366;-71
2024/02/23 01:20:29;;;;;;;6.95;4.78;;;333.60;1894.40;;;;;;4858711;29;20048;-79
2024/02/23 01:22:55;;;;;;;7.82;6.78;;;333.50;1894.40;;;;;;4858718;29;20109;-82
2024/02/23 01:25:20;;;;;;;7.65;5.65;;;333.50;1894.40;;;;;;4858582;29;20045;-78
2024/02/23 01:27:46;;;;;;;8.73;6.57;;;333.60;1894.40;;;;;;4858269;29;20064;-76
2024/02/23 01:30:12;;;;;;;6.47;4.85;;;333.60;1894.40;;;;;;4858214;29;20129;-80
2024/02/23 01:32:38;;;;;;;8.73;5.60;;;333.60;1894.40;;;;;;4858074;29;20021;-79
2024/02/23 01:35:06;;;;;;;9.27;6.20;;;333.60;1894.40;;;;;;4858530;29;20219;-74
2024/02/23 01:37:32;;;;;;;8.77;5.45;;;333.50;1920.00;;;;;;4858329;29;20022;-71
2024/02/23 01:39:59;;;;;;;9.52;5.20;;;333.50;1920.00;;;;;;4858094;29;20120;-76
2024/02/23 01:42:25;;;;;;;8.15;5.88;;;333.60;1920.00;;;;;;4858183;29;20034;-75
2024/02/23 01:44:52;;;;;;;8.32;5.28;;;333.50;1920.00;;;;;;4858351;29;20120;-77
2024/02/23 01:47:18;;;;;;;8.10;5.25;;;333.50;1920.00;;;;;;4857850;29;20025;-72
2024/02/23 01:49:47;;;;;;;6.13;5.30;;;333.40;1920.00;;;;;;4858119;29;20064;-70
2024/02/23 01:52:14;;;;;;;7.63;6.35;;;333.50;1920.00;;;;;;4858045;29;20033;-74
2024/02/23 01:54:40;;;;;;;9.27;6.32;;;333.50;1920.00;;;;;;4857741;29;20061;-73
2024/02/23 01:57:08;;;;;;;9.82;7.22;;;333.50;1920.00;;;;;;4857877;29;20034;-73
2024/02/23 01:59:37;;;;;;;6.65;5.15;;;333.50;1920.00;;;;;;4857762;29;20057;-73
2024/02/23 02:02:04;;;;;;;7.95;5.40;;;333.50;1894.40;;;;;;4857950;29;20075;-82
2024/02/23 02:04:30;;;;;;;8.10;5.63;;;333.50;1920.00;;;;;;4857948;29;20122;-77
2024/02/23 02:06:58;;;;;;;10.68;5.68;;;333.50;1920.00;;;;;;4857755;29;20104;-78
2024/02/23 02:09:24;;;;;;;11.82;7.68;;;333.50;1945.60;;;;;;4857788;29;20469;-77
2024/02/23 02:11:50;;;;;;;7.38;5.28;;;333.40;1945.60;;;;;;4857401;29;20033;-79
2024/02/23 02:14:16;;;;;;;9.45;7.18;;;333.50;1920.00;;;;;;4857322;29;20029;-71
2024/02/23 02:16:43;;;;;;;8.40;6.88;;;333.50;1945.60;;;;;;4857520;29;20029;-70
2024/02/23 02:19:10;;;;;;;8.05;5.75;;;333.50;1920.00;;;;;;4857231;29;20022;-81
2024/02/23 02:21:36;;;;;;;10.50;7.15;;;333.50;1920.00;;;;;;4857364;29;20029;-70
2024/02/23 02:24:03;;;;;;;8.75;5.90;;;333.50;1920.00;;;;;;4857695;29;20034;-76
2024/02/23 02:26:29;;;;;;;5.85;4.82;;;333.50;1920.00;;;;;;4857251;29;20034;-71
2024/02/23 02:28:55;;;;;;;8.13;5.30;;;333.50;1945.60;;;;;;4857347;29;20033;-75
2024/02/23 02:31:21;;;;;;;5.95;4.43;;;333.50;1945.60;;;;;;4857089;29;20507;-74
2024/02/23 02:33:46;;;;;;;9.43;6.68;;;333.50;1945.60;;;;;;4857723;29;20057;-79
2024/02/23 02:36:12;;;;;;;9.90;6.75;;;333.50;1945.60;;;;;;4857549;29;20477;-82
2024/02/23 02:38:38;;;;;;;7.82;7.03;;;333.50;1945.60;;;;;;4840631;29;20577;-74
2024/02/23 02:41:04;;;;;;;8.52;5.35;;;333.60;1945.60;;;;;;4857344;29;20048;-76
2024/02/23 02:43:31;;;;;;;10.02;6.68;;;333.60;1920.00;;;;;;4855236;29;20506;-79
2024/02/23 02:45:57;;;;;;;10.48;7.38;;;333.70;1920.00;;;;;;4857137;29;20470;-75
2024/02/23 02:48:23;;;;;;;10.15;6.30;;;333.60;1945.60;;;;;;4857269;29;20041;-80
2024/02/23 02:50:49;;;;;;;10.43;6.05;;;333.60;1920.00;;;;;;4857100;29;20469;-77
2024/02/23 02:53:15;;;;;;;8.45;5.65;;;333.70;1920.00;;;;;;4856824;29;20057;-75
2024/02/23 02:55:43;;;;;;;7.13;5.93;;;333.60;1945.60;;;;;;4857090;29;20084;-78
2024/02/23 02:58:09;;;;;;;6.00;4.32;;;358.40;1945.60;;;;;;4856802;29;20029;-79
2024/02/23 03:00:35;;;;;;;12.57;7.80;;;333.60;1945.60;;;;;;4857160;29;20041;-74
2024/02/23 03:03:00;;;;;;;5.30;4.20;;;333.60;1945.60;;;;;;4856979;29;20030;-77
2024/02/23 03:05:26;;;;;;;13.63;8.05;;;333.60;1945.60;;;;;;4856911;29;20085;-79
2024/02/23 03:07:52;;;;;;;7.85;5.68;;;333.50;1971.20;;;;;;4857209;29;20163;-79
2024/02/23 03:10:18;;;;;;;14.73;6.50;;;333.50;1945.60;;;;;;4856973;29;20037;-76
2024/02/23 03:12:44;;;;;;;7.82;4.93;;;333.60;1945.60;;;;;;4857035;29;20026;-82
2024/02/23 03:15:10;;;;;;;9.18;5.65;;;333.60;1945.60;;;;;;4856728;29;20162;-72
2024/02/23 03:17:36;;;;;;;6.15;5.22;;;333.70;1945.60;;;;;;4856766;29;20025;-72
2024/02/23 03:20:05;;;;;;;6.43;5.25;;;333.70;1945.60;;;;;;4857260;29;20033;-75
2024/02/23 03:22:31;;;;;;;7.93;5.60;;;333.70;1945.60;;;;;;4856972;29;20112;-78
2024/02/23 03:24:57;;;;;;;9.38;5.07;;;333.70;1945.60;;;;;;4856757;29;20179;-71
2024/02/23 03:27:29;;;;;;;6.88;5.30;;;333.70;1945.60;;;;;;4856760;29;20497;-76
2024/02/23 03:29:55;;;;;;;6.28;4.93;;;333.70;1945.60;;;;;;4856782;29;20059;-77
2024/02/23 03:32:20;;;;;;;7.78;5.80;;;333.60;1945.60;;;;;;4856822;29;20060;-79
2024/02/23 03:34:46;;;;;;;7.80;5.57;;;333.60;1945.60;;;;;;4856793;29;20133;-76
2024/02/23 03:37:12;;;;;;;6.97;5.18;;;333.60;1945.60;;;;;;4856738;29;20025;-72
2024/02/23 03:39:38;;;;;;;8.30;4.90;;;333.60;1945.60;;;;;;4856598;29;20034;-75
2024/02/23 03:42:04;;;;;;;8.20;4.60;;;333.60;1945.60;;;;;;4856866;29;20535;-74
2024/02/23 03:44:31;;;;;;;7.32;4.78;;;333.20;1945.60;;;;;;4856567;29;20473;-75
2024/02/23 03:46:57;;;;;;;8.80;5.38;;;333.70;1945.60;;;;;;4856342;29;20066;-79
2024/02/23 03:49:23;;;;;;;6.93;4.78;;;333.70;1945.60;;;;;;4856762;29;20117;-75
2024/02/23 03:51:48;;;;;;;7.68;4.75;;;333.70;1945.60;;;;;;4856430;29;20116;-72
2024/02/23 03:54:14;;;;;;;6.25;4.78;;;333.70;1945.60;;;;;;4857836;29;20054;-78
2024/02/23 03:56:41;;;;;;;9.27;6.45;;;333.70;1945.60;;;;;;4846630;29;20050;-75
2024/02/23 03:59:10;;;;;;;9.02;5.55;;;333.70;1945.60;;;;;;4841111;29;20034;-72
2024/02/23 04:01:37;;;;;;;10.02;9.02;;;333.70;1945.60;;;;;;4841360;29;20030;-79
2024/02/23 04:04:04;;;;;;;8.23;6.15;;;333.70;1945.60;;;;;;4841793;29;20030;-72
2024/02/23 04:06:29;;;;;;;7.10;5.10;;;333.70;1945.60;;;;;;4841534;29;20442;-82
2024/02/23 04:08:55;;;;;;;6.50;5.18;;;333.70;1945.60;;;;;;4841602;29;20030;-81
2024/02/23 04:11:21;;;;;;;8.85;5.63;;;333.70;1945.60;;;;;;4841521;29;20497;-75
2024/02/23 04:13:47;;;;;;;7.72;5.20;;;333.70;1945.60;;;;;;4841360;29;20026;-77
2024/02/23 04:16:12;;;;;;;6.43;4.90;;;333.70;1945.60;;;;;;4841719;29;20030;-73
2024/02/23 04:18:38;;;;;;;7.40;4.80;;;333.70;1945.60;;;;;;4841465;29;20052;-73
2024/02/23 04:21:04;;;;;;;7.10;5.20;;;333.70;1945.60;;;;;;4841135;29;20549;-75
2024/02/23 04:23:30;;;;;;;8.32;6.20;;;333.70;1945.60;;;;;;4841076;29;20033;-81
2024/02/23 04:25:56;;;;;;;7.53;5.70;;;333.70;1945.60;;;;;;4840989;29;20075;-72
2024/02/23 04:28:22;;;;;;;9.48;5.70;;;333.60;1971.20;;;;;;4841232;29;20064;-72
2024/02/23 04:30:48;;;;;;;8.43;6.72;;;333.70;1971.20;;;;;;4840941;29;20041;-77
2024/02/23 04:33:14;;;;;;;6.68;4.75;;;333.60;1971.20;;;;;;4841119;29;20036;-78
2024/02/23 04:35:39;;;;;;;6.63;5.07;;;333.60;1971.20;;;;;;4841196;29;20034;-76
2024/02/23 04:38:05;;;;;;;8.18;5.38;;;333.60;1971.20;;;;;;4841288;29;20890;-77
2024/02/23 04:40:31;;;;;;;9.57;6.65;;;333.60;1971.20;;;;;;4841147;29;20037;-80
2024/02/23 04:42:57;;;;;;;8.30;6.40;;;333.60;1971.20;;;;;;4840988;29;20030;-72
2024/02/23 04:45:22;;;;;;;7.47;5.70;;;333.60;1971.20;;;;;;4840730;29;20458;-77
2024/02/23 04:47:48;;;;;;;9.13;6.80;;;333.60;1971.20;;;;;;4840724;29;20527;-79
2024/02/23 04:50:14;;;;;;;10.40;8.00;;;333.60;1971.20;;;;;;4841003;29;20044;-74
2024/02/23 04:52:40;;;;;;;7.65;6.40;;;333.60;1971.20;;;;;;4840525;29;20502;-74
2024/02/23 04:55:06;;;;;;;8.18;5.80;;;333.50;1971.20;;;;;;4840511;29;20061;-73
2024/02/23 04:57:32;;;;;;;11.23;6.75;;;333.50;1971.20;;;;;;4841123;29;20026;-82
2024/02/23 04:59:58;;;;;;;13.18;7.75;;;333.50;1971.20;;;;;;4840438;29;20038;-83
2024/02/23 05:02:24;;;;;;;8.10;6.18;;;333.50;1971.20;;;;;;4840560;29;20022;-73
2024/02/23 05:04:50;;;;;;;10.20;6.47;;;333.50;1971.20;;;;;;4840458;29;20062;-72
2024/02/23 05:07:16;;;;;;;11.43;7.20;;;333.60;1971.20;;;;;;4839983;29;20080;-73
2024/02/23 05:09:41;;;;;;;12.45;9.68;;;333.60;1971.20;;;;;;4840488;29;20026;-79
2024/02/23 05:12:08;;;;;;;14.43;8.60;;;333.70;1971.20;;;;;;4840304;29;20128;-82
2024/02/23 05:14:34;;;;;;;12.50;8.95;;;333.70;1945.60;;;;;;4840733;29;20350;-76
2024/02/23 05:17:00;;;;;;;10.55;6.95;;;333.70;1971.20;;;;;;4840347;29;20040;-75
2024/02/23 05:19:26;;;;;;;10.38;6.32;;;333.60;1971.20;;;;;;4840222;29;20042;-77
2024/02/23 05:21:51;;;;;;;10.10;6.43;;;333.60;2022.40;;;;;;4840308;29;20037;-75
2024/02/23 05:24:17;;;;;;;9.25;7.28;;;333.50;2048.00;;;;;;4840282;29;20041;-72
2024/02/23 05:26:44;;;;;;;8.35;6.68;;;333.50;2073.60;;;;;;4840515;29;20700;-72
2024/02/23 05:29:12;;;;;;;7.45;5.47;;;333.50;2099.20;;;;;;4839839;29;20030;-82
2024/02/23 05:31:53;;;;;;;8.27;5.50;;;333.50;2099.20;;;;;;4840028;29;20029;-79
2024/02/23 05:34:19;;;;;;;10.43;9.43;;;333.40;2124.80;;;;;;4839893;29;20061;-76
2024/02/23 05:36:45;;;;;;;7.43;5.95;;;333.40;2150.40;;;;;;4840098;29;20197;-75
2024/02/23 05:39:12;;;;;;;6.82;5.32;;;333.40;2176.00;;;;;;4839633;29;20431;-79
2024/02/23 05:41:39;;;;;;;10.55;6.63;;;333.40;2124.80;;;;;;4839697;29;20034;-71
2024/02/23 05:44:05;;;;;;;12.60;6.47;;;333.40;2124.80;;;;;;4839817;29;20030;-80
2024/02/23 05:46:42;;;;;;;7.10;5.65;;;358.50;2124.80;;;;;;4839764;29;20504;-78
2024/02/23 05:49:09;;;;;;;7.90;5.88;;;333.40;2124.80;;;;;;4823006;29;20042;-78
2024/02/23 05:51:35;;;;;;;11.15;7.70;;;333.30;2150.40;;;;;;4839694;29;20030;-77
2024/02/23 05:54:00;;;;;;;11.48;8.52;;;333.40;2176.00;;;;;;4839434;29;20050;-77
2024/02/23 05:56:26;;;;;;;18.50;11.27;;;333.30;2150.40;;;;;;4839657;29;20073;-73
2024/02/23 05:58:52;;;;;;;12.38;9.00;;;333.40;2124.80;;;;;;4839596;29;20041;-76
2024/02/23 06:01:18;;;;;;;7.22;5.28;;;333.50;2124.80;;;;;;4839196;29;20617;-76
2024/02/23 06:03:44;;;;;;;9.48;6.25;;;333.50;2099.20;;;;;;4839346;29;20029;-80
2024/02/23 06:06:11;;;;;;;7.80;5.28;;;333.50;2124.80;;;;;;4839358;29;20033;-72
2024/02/23 06:08:37;;;;;;;10.98;8.65;;;333.60;2099.20;;;;;;4839349;29;20030;-74
2024/02/23 06:11:03;;;;;;;7.50;6.10;;;333.70;2099.20;;;;;;4839518;29;20034;-70
2024/02/23 06:13:30;;;;;;;5.47;4.20;;;333.70;2124.80;;;;;;4839629;29;20033;-77
2024/02/23 06:15:56;;;;;;;9.07;7.80;;;333.70;2124.80;;;;;;4839264;29;20492;-76
2024/02/23 06:18:22;;;;;;;28.40;18.15;;;333.70;2124.80;;;;;;4839184;29;20034;-77
2024/02/23 06:20:49;;;;;;;26.38;17.08;;;333.70;2124.80;;;;;;4839084;29;20049;-76
2024/02/23 06:23:15;;;;;;;18.92;14.52;;;333.70;2124.80;;;;;;4839093;29;20122;-82
2024/02/23 06:25:41;;;;;;;11.00;7.93;;;333.70;2124.80;;;;;;4839622;29;20472;-80
2024/02/23 06:28:07;;;;;;;12.05;9.43;;;333.70;2073.60;;;;;;4838926;29;20132;-75
2024/02/23 06:30:32;;;;;;;29.92;20.52;;;333.70;2099.20;;;;;;4839141;29;20072;-72
2024/02/23 06:32:58;;;;;;;45.28;28.83;;;358.40;2073.60;;;;;;4839090;29;20065;-76
2024/02/23 06:35:24;;;;;;;165.32;132.07;;;358.40;2099.20;;;;;;4838946;29;20062;-78
2024/02/23 06:37:50;;;;;;;47.53;39.95;;;358.50;2099.20;;;;;;4856939;29;20037;-75
2024/02/23 06:40:15;;;;;;;26.45;17.95;;;358.50;2099.20;;;;;;4857211;29;20057;-70
2024/02/23 06:42:41;;;;;;;94.30;74.13;;;358.70;1996.80;;;;;;4857364;29;20026;-75
2024/02/23 06:45:07;;;;;;;125.43;98.75;;;358.70;2022.40;;;;;;4857034;29;20088;-81
2024/02/23 06:47:34;;;;;;;55.88;49.80;;;;;;;;;;4857188;29;20033;-73
2024/02/23 06:50:00;;;;;;;24.00;21.50;;;;;;;;;;4857148;29;20033;-76
2024/02/23 06:52:26;;;;;;;45.55;40.65;;;;;;;;;;4856888;29;20026;-74
2024/02/23 06:54:52;;;;;;;80.97;72.20;;;;;;;;;;4857025;29;20084;-73
2024/02/23 06:57:18;;;;;;;22.52;20.48;;;;;;;;;;4856903;29;20452;-71
2024/02/23 06:59:44;;;;;;;19.17;17.27;;;;;;;;;;4857037;29;20033;-74
2024/02/23 07:02:11;;;;;;;13.32;11.85;;;;;;;;;;4856850;29;20029;-70
2024/02/23 07:04:37;;;;;;;19.13;11.68;;;;;;;;;;4856980;29;20037;-75
2024/02/23 07:07:07;;;;;;;13.25;9.52;;;;;;;;;;4857215;29;20022;-70
2024/02/23 07:09:33;;;;;;;25.33;18.95;;;;;;;;;;4857215;29;20032;-70
2024/02/23 07:11:59;;;;;;;134.75;72.10;;;;;;;;;;4857247;29;20384;-77
2024/02/23 07:14:25;;;;;;;37.65;21.00;;;;;;;;;;4844332;29;20474;-74
2024/02/23 07:16:54;;;;;;;27.55;17.60;;;;;;;;;;4838729;29;20518;-78
2024/02/23 07:19:20;;;;;;;32.05;24.83;;;;;;;;;;4838518;29;20374;-81
2024/02/23 07:21:46;;;;;;;41.92;24.80;;;384.00;1945.60;;;;;;4838460;29;20036;-71
2024/02/23 07:24:13;;;;;;;27.23;16.88;;;384.00;1945.60;;;;;;4838693;29;20030;-74
2024/02/23 07:26:38;;;;;;;23.85;17.02;;;359.20;1945.60;;;;;;4838197;29;20030;-75
2024/02/23 07:29:04;;;;;;;29.30;19.30;;;;;;;;;;4839501;29;20614;-82
2024/02/23 07:31:30;;;;;;;32.05;20.65;;;384.20;1920.00;;;;;;4842430;29;20026;-73
2024/02/23 07:33:56;;;;;;;40.38;27.10;;;384.00;1945.60;;;;;;4842000;29;20030;-76
2024/02/23 07:36:22;;;;;;;11.38;9.52;;;384.00;1945.60;;;;;;4842318;29;20034;-72
2024/02/23 07:38:47;;;;;;;11.32;8.38;;;384.10;1945.60;;;;;;4841132;29;20026;-78
2024/02/23 07:41:14;;;;;;;10.52;7.65;;;384.20;1945.60;;;;;;4841265;29;20645;-76
2024/02/23 07:43:40;;;;;;;17.77;15.20;;;384.20;1945.60;;;;;;4841905;29;20483;-72
2024/02/23 07:46:08;;;;;;;27.00;15.00;;;384.20;1920.00;;;;;;4841753;29;20061;-74
2024/02/23 07:48:37;;;;;;;31.10;21.35;;;384.30;1920.00;;;;;;4840932;29;20105;-73
2024/02/23 07:51:05;;;;;;;41.30;27.80;;;384.40;1894.40;;;;;;4841835;29;20489;-71
2024/02/23 07:53:31;;;;;;;29.70;20.63;;;384.30;1920.00;;;;;;4840914;29;20053;-75
2024/02/23 07:55:59;;;;;;;12.68;8.90;;;384.30;1894.40;;;;;;4841185;29;20046;-78
2024/02/23 07:58:26;;;;;;;21.08;15.18;;;384.40;1894.40;;;;;;4841730;29;20053;-71
2024/02/23 08:00:53;;;;;;;38.78;25.63;;;384.20;1920.00;;;;;;4841535;29;20156;-71
2024/02/23 08:03:19;;;;;;;28.58;22.98;;;384.40;1920.00;;;;;;4840926;29;20450;-76
2024/02/23 08:05:45;;;;;;;44.13;29.40;;;384.40;1920.00;;;;;;4841564;29;20040;-71
2024/02/23 08:08:11;;;;;;;42.30;29.45;;;;;;;;;;4841361;29;20086;-74
2024/02/23 08:10:37;;;;;;;23.95;18.83;;;;;;;;;;4841351;29;20513;-79
2024/02/23 08:13:03;;;;;;;22.20;17.35;;;384.80;1868.80;;;;;;4841485;29;20033;-71
2024/02/23 08:15:29;;;;;;;35.97;26.42;;;384.70;1868.80;;;;;;4841318;29;20025;-76
2024/02/23 08:17:55;;;;;;;65.00;52.40;;;384.60;1894.40;;;;;;4841419;29;20079;-78
2024/02/23 08:20:21;;;;;;;116.50;86.78;;;384.60;1868.80;;;;;;4841179;29;20129;-77
2024/02/23 08:22:47;;;;;;;49.78;42.55;;;384.90;1843.20;;;;;;4840980;29;20120;-77
2024/02/23 08:25:13;;;;;;;49.80;39.70;;;384.90;1868.80;;;;;;4841368;29;20038;-71
2024/02/23 08:27:40;;;;;;;88.55;65.30;;;409.60;1894.40;;;;;;4841046;29;20045;-72
2024/02/23 08:30:06;;;;;;;25.10;21.08;;;409.60;1894.40;;;;;;4841390;29;20599;-74
2024/02/23 08:32:32;;;;;;;176.23;124.47;;;409.80;1894.40;;;;;;4841060;29;20128;-70
2024/02/23 08:34:59;;;;;;;48.05;35.03;;;409.70;1868.80;;;;;;4841154;29;20186;-78
2024/02/23 08:37:26;;;;;;;249.35;165.93;;;409.60;1894.40;;;;;;4840886;29;20501;-76
2024/02/23 08:39:52;;;;;;;195.45;132.60;;;409.80;1894.40;;;;;;4842295;29;20073;-74
2024/02/23 08:42:18;;;;;;;60.35;45.42;;;409.90;1868.80;;;;;;4840101;29;20680;-72
2024/02/23 08:44:44;;;;;;;37.75;27.45;;;410.00;1894.40;;;;;;4839733;29;20048;-77
2024/02/23 08:47:10;;;;;;;46.50;31.00;;;410.00;1868.80;;;;;;4840184;29;20062;-75
2024/02/23 08:49:35;;;;;;;66.93;46.47;;;410.10;1868.80;;;;;;4840282;29;20065;-78
2024/02/23 08:52:02;;;;;;;81.65;56.08;;;410.10;1843.20;;;;;;4840136;29;20065;-70
2024/02/23 08:54:28;;;;;;;175.38;114.80;;;410.20;1843.20;;;;;;4841026;29;20573;-78
2024/02/23 08:56:53;;;;;;;15.13;12.27;;;410.00;1817.60;;;;;;4840533;29;20125;-69
2024/02/23 08:59:19;;;;;;;44.08;34.95;;;410.00;1894.40;;;;;;4837724;29;20390;-73
2024/02/23 09:01:46;;;;;;;22.55;15.57;;;410.10;1843.20;;;;;;4840106;29;20371;-70
2024/02/23 09:04:15;;;;;;;117.72;78.43;;;410.10;1843.20;;;;;;4840360;29;20022;-73
2024/02/23 09:06:50;;;;;;;37.35;26.30;;;410.20;1792.00;;;;;;4837778;29;20054;-70
2024/02/23 09:09:16;;;;;;;33.03;22.25;;;410.10;1792.00;;;;;;4839583;29;20026;-71
2024/02/23 09:11:42;;;;;;;37.75;22.50;;;410.20;1792.00;;;;;;4839853;29;20067;-72
2024/02/23 09:14:08;;;;;;;63.80;36.58;;;410.20;1792.00;;;;;;4839927;29;20105;-72
2024/02/23 09:16:33;;;;;;;59.15;36.75;;;410.20;1792.00;;;;;;4836708;29;20135;-70
2024/02/23 09:18:59;;;;;;;33.78;23.85;;;410.30;1792.00;;;;;;4839895;29;20057;-69
2024/02/23 09:21:25;;;;;;;14.68;10.90;;;410.50;1792.00;;;;;;4823190;29;20038;-70
2024/02/23 09:23:51;;;;;;;18.08;13.82;;;410.50;1792.00;;;;;;4839600;29;20117;-70
2024/02/23 09:26:17;;;;;;;17.40;12.93;;;410.50;1766.40;;;;;;4839562;29;20295;-70
2024/02/23 09:28:44;;;;;;;21.42;14.10;;;410.50;1792.00;;;;;;4847040;29;20036;-70
2024/02/23 09:31:11;;;;;;;56.85;33.50;;;435.20;1766.40;;;;;;4839298;29;20401;-74
2024/02/23 09:33:36;;;;;;;27.05;16.42;;;435.30;1766.40;;;;;;4839497;29;20049;-70
2024/02/23 09:36:03;;;;;;;12.02;8.18;;;435.40;1792.00;;;;;;4845794;29;20442;-76
2024/02/23 09:38:29;;;;;;;29.15;21.52;;;435.50;1766.40;;;;;;4846726;29;20388;-73
2024/02/23 09:40:54;;;;;;;49.33;38.90;;;435.50;1740.80;;;;;;4842858;29;20030;-73
2024/02/23 09:43:24;;;;;;;27.88;20.48;;;435.60;1715.20;;;;;;4839185;29;20022;-73
2024/02/23 09:45:53;;;;;;;6.82;5.15;;;435.70;1715.20;;;;;;4837400;29;20397;-80
2024/02/23 09:48:20;;;;;;;5.00;3.40;;;436.00;1740.80;;;;;;4844011;29;20022;-77
2024/02/23 09:50:48;;;;;;;7.07;5.20;;;435.90;1766.40;;;;;;4848050;29;20139;-72
2024/02/23 09:53:14;;;;;;;48.50;29.83;;;436.00;1715.20;;;;;;4839392;29;20030;-77
2024/02/23 09:55:39;;;;;;;10.65;7.30;;;436.10;1689.60;;;;;;4838956;29;20049;-79
2024/02/23 09:58:08;;;;;;;18.20;9.98;;;436.10;1689.60;;;;;;4839209;29;20022;-74
2024/02/23 10:00:37;;;;;;;32.72;25.50;;;460.80;1715.20;;;;;;4838933;29;20034;-76
2024/02/23 10:03:04;;;;;;;18.92;13.00;;;460.90;1689.60;;;;;;4839251;29;20191;-70
2024/02/23 10:05:33;;;;;;;17.33;11.98;;;461.10;1689.60;;;;;;4836638;29;20476;-80
2024/02/23 10:07:59;;;;;;;49.03;27.70;;;461.10;1689.60;;;;;;4838667;29;20026;-79
2024/02/23 10:10:31;;;;;;;9.27;6.95;;;461.00;1689.60;;;;;;4839309;29;20056;-76
2024/02/23 10:12:57;;;;;;;43.03;25.20;;;461.10;1664.00;;;;;;4838808;29;20030;-76
2024/02/23 10:15:23;;;;;;;8.60;6.68;;;461.20;1689.60;;;;;;4838961;29;20026;-81
2024/02/23 10:17:49;;;;;;;28.35;19.52;;;461.20;1664.00;;;;;;4838557;29;20026;-77
2024/02/23 10:20:15;;;;;;;17.20;13.45;;;461.20;1689.60;;;;;;4838917;29;20046;-79
2024/02/23 10:22:40;;;;;;;8.77;7.25;;;461.00;1689.60;;;;;;4838208;29;20030;-69
2024/02/23 10:25:06;;;;;;;43.55;28.33;;;461.00;1638.40;;;;;;4838490;29;20045;-72
2024/02/23 10:27:32;;;;;;;14.52;10.00;;;461.20;1664.00;;;;;;4816791;29;20044;-74
2024/02/23 10:29:58;;;;;;;10.30;6.18;;;461.20;1664.00;;;;;;4837975;29;20354;-80
2024/02/23 10:32:29;;;;;;;15.63;10.63;;;461.30;1638.40;;;;;;4839169;29;20029;-79
2024/02/23 10:34:59;;;;;;;20.70;13.70;;;461.00;1638.40;;;;;;4838716;29;20045;-82
2024/02/23 10:37:26;;;;;;;61.42;39.97;;;461.20;1689.60;;;;;;4838365;29;20026;-78
2024/02/23 10:39:57;;;;;;;104.70;65.57;;;461.20;1638.40;;;;;;4838664;29;20098;-75
2024/02/23 10:42:24;;;;;;;63.03;37.80;;;461.10;1664.00;;;;;;4834435;29;20025;-78
2024/02/23 10:44:52;;;;;;;118.05;71.97;;;461.20;1689.60;;;;;;4838553;29;20033;-81
2024/02/23 10:47:21;;;;;;;75.65;53.80;;;461.10;1664.00;;;;;;4838155;29;20028;-78
2024/02/23 10:49:48;;;;;;;12.13;8.98;;;461.10;1638.40;;;;;;4838865;29;20041;-79
2024/02/23 10:52:15;;;;;;;52.28;32.60;;;461.30;1689.60;;;;;;4838703;29;20435;-76
2024/02/23 10:54:41;;;;;;;76.13;53.17;;;461.40;1664.00;;;;;;4837579;29;20050;-81
2024/02/23 10:57:07;;;;;;;140.63;88.22;;;461.30;1612.80;;;;;;4838237;29;20053;-77
2024/02/23 10:59:33;;;;;;;33.70;22.08;;;461.30;1612.80;;;;;;4838263;29;20022;-75
2024/02/23 11:02:00;;;;;;;132.05;95.38;;;461.10;1612.80;;;;;;4838019;29;20034;-81
2024/02/23 11:04:28;;;;;;;16.85;13.45;;;461.20;1612.80;;;;;;4829918;29;20105;-77
2024/02/23 11:07:04;;;;;;;32.60;29.10;;;461.10;1638.40;;;;;;4838354;29;20121;-74
2024/02/23 11:09:32;;;;;;;65.97;50.60;;;461.00;1664.00;;;;;;4838347;29;20086;-79
2024/02/23 11:11:59;;;;;;;39.63;26.02;;;460.90;1612.80;;;;;;4838095;29;20089;-78
2024/02/23 11:14:35;;;;;;;81.03;50.33;;;461.20;1612.80;;;;;;4840507;29;20033;-77
2024/02/23 11:17:01;;;;;;;100.18;64.72;;;461.20;1612.80;;;;;;4842138;29;20097;-77
2024/02/23 11:19:37;;;;;;;91.30;56.42;;;461.20;1612.80;;;;;;4838395;29;20029;-77
2024/02/23 11:22:04;;;;;;;28.90;17.45;;;461.50;1612.80;;;;;;4838548;29;20097;-76
2024/02/23 11:24:31;;;;;;;54.83;30.92;;;461.50;1612.80;;;;;;4838612;29;20071;-71
2024/02/23 11:26:57;;;;;;;77.45;50.20;;;461.50;1587.20;;;;;;4838417;29;20090;-74
2024/02/23 11:29:32;;;;;;;71.45;48.33;;;461.50;1612.80;;;;;;4838512;29;20026;-77
2024/02/23 11:32:03;;;;;;;19.05;12.13;;;461.50;1612.80;;;;;;4838199;29;20030;-78
2024/02/23 11:34:29;;;;;;;13.70;9.18;;;461.50;1587.20;;;;;;4837631;29;20485;-76
2024/02/23 11:36:56;;;;;;;17.73;14.00;;;461.50;1612.80;;;;;;4838730;29;20413;-74
2024/02/23 11:39:23;;;;;;;23.98;16.05;;;461.50;1612.80;;;;;;4838534;29;20033;-77
2024/02/23 11:41:49;;;;;;;14.60;11.07;;;486.40;1561.60;;;;;;4838188;29;20030;-78
2024/02/23 11:44:17;;;;;;;8.02;6.13;;;486.50;1587.20;;;;;;4837794;29;20026;-77
2024/02/23 11:46:43;;;;;;;23.20;15.07;;;486.70;1561.60;;;;;;4838367;29;20038;-77
2024/02/23 11:49:09;;;;;;;29.42;20.52;;;486.60;1561.60;;;;;;4838217;29;20030;-81
2024/02/23 11:51:35;;;;;;;24.25;19.42;;;486.60;1561.60;;;;;;4838435;29;20034;-75
2024/02/23 11:54:01;;;;;;;9.45;5.82;;;486.70;1561.60;;;;;;4838159;29;20050;-81
2024/02/23 11:56:28;;;;;;;39.55;29.27;;;486.60;1561.60;;;;;;4838127;29;20396;-75
2024/02/23 11:58:55;;;;;;;53.13;36.05;;;486.60;1561.60;;;;;;4838045;29;20038;-78
2024/02/23 12:01:21;;;;;;;55.10;36.90;;;486.60;1536.00;;;;;;4838079;29;20122;-80
2024/02/23 12:03:47;;;;;;;55.67;35.28;;;486.40;1536.00;;;;;;4837761;29;20109;-78
2024/02/23 12:06:15;;;;;;;21.83;15.52;;;486.40;1587.20;;;;;;4838155;29;20066;-77
2024/02/23 12:08:41;;;;;;;31.13;22.98;;;486.40;1587.20;;;;;;4838314;29;20052;-81